createdAt,value
2018-04-25T00:00:46.959Z,77.97
2018-04-25T00:01:46.992Z,78.17
2018-04-25T00:02:47.002Z,78.27
2018-04-25T00:03:47.032Z,78.61
2018-04-25T00:04:47.053Z,78.70
2018-04-25T00:05:47.074Z,79.85
2018-04-25T00:06:47.099Z,80.43
2018-04-25T00:07:47.118Z,79.95
2018-04-25T00:08:47.145Z,80.24
2018-04-25T00:09:47.176Z,81.34
2018-04-25T00:10:47.191Z,81.15
2018-04-25T00:11:47.213Z,79.95
2018-04-25T00:12:47.238Z,79.08
2018-04-25T00:13:47.273Z,79.28
2018-04-25T00:14:47.318Z,78.89
2018-04-25T00:15:47.308Z,78.07
2018-04-25T00:16:47.334Z,78.07
2018-04-25T00:17:47.353Z,78.64
2018-04-25T00:18:47.409Z,78.99
2018-04-25T00:19:47.399Z,78.55
2018-04-25T00:20:47.422Z,78.27
2018-04-25T00:21:47.438Z,78.17
2018-04-25T00:22:47.469Z,78.74
2018-04-25T00:23:47.491Z,77.59
2018-04-25T00:24:47.521Z,76.67
2018-04-25T00:25:47.537Z,75.71
2018-04-25T00:26:47.565Z,75.43
2018-04-25T00:27:47.587Z,75.90
2018-04-25T00:28:47.621Z,75.81
2018-04-25T00:29:47.643Z,75.68
2018-04-25T00:30:47.656Z,76.54
2018-04-25T00:31:47.678Z,76.54
2018-04-25T00:32:47.705Z,76.44
2018-04-25T00:33:47.719Z,76.54
2018-04-25T00:34:47.772Z,77.50
2018-04-25T00:35:47.772Z,77.40
2018-04-25T00:36:47.794Z,77.65
2018-04-25T00:37:47.820Z,77.65
2018-04-25T00:38:47.842Z,78.03
2018-04-25T00:39:47.864Z,77.94
2018-04-25T00:40:47.884Z,78.32
2018-04-25T00:41:47.907Z,78.99
2018-04-25T00:42:47.935Z,79.33
2018-04-25T00:43:47.965Z,78.61
2018-04-25T00:44:47.974Z,78.42
2018-04-25T00:45:48.030Z,78.51
2018-04-25T00:46:48.015Z,77.94
2018-04-25T00:47:48.051Z,78.89
2018-04-25T00:48:48.078Z,79.18
2018-04-25T00:49:48.089Z,78.22
2018-04-25T00:50:48.110Z,78.51
2018-04-25T00:51:48.140Z,78.51
2018-04-25T00:52:48.160Z,79.08
2018-04-25T00:53:48.185Z,78.61
2018-04-25T00:54:48.203Z,78.99
2018-04-25T00:55:48.271Z,78.32
2018-04-25T00:56:48.243Z,78.89
2018-04-25T00:57:48.289Z,78.61
2018-04-25T00:58:48.312Z,78.99
2018-04-25T00:59:48.314Z,78.70
2018-04-25T01:00:48.352Z,78.51
2018-04-25T01:01:48.361Z,78.70
2018-04-25T01:02:48.391Z,79.18
2018-04-25T01:03:48.407Z,78.70
2018-04-25T01:04:48.425Z,78.99
2018-04-25T01:05:48.445Z,78.99
2018-04-25T01:06:48.477Z,78.80
2018-04-25T01:07:48.497Z,78.99
2018-04-25T01:08:48.523Z,79.72
2018-04-25T01:09:48.570Z,80.58
2018-04-25T01:10:48.570Z,80.00
2018-04-25T01:11:48.712Z,80.00
2018-04-25T01:12:48.616Z,79.28
2018-04-25T01:13:48.633Z,78.70
2018-04-25T01:14:48.658Z,79.08
2018-04-25T01:15:48.679Z,78.89
2018-04-25T01:16:48.705Z,78.89
2018-04-25T01:17:48.727Z,78.99
2018-04-25T01:18:48.749Z,79.43
2018-04-25T01:19:48.793Z,79.08
2018-04-25T01:20:48.864Z,79.18
2018-04-25T01:21:48.817Z,79.28
2018-04-25T01:22:48.836Z,78.70
2018-04-25T01:23:48.869Z,78.22
2018-04-25T01:24:48.877Z,78.13
2018-04-25T01:25:48.915Z,79.14
2018-04-25T01:26:48.930Z,79.05
2018-04-25T01:27:48.950Z,79.62
2018-04-25T01:28:48.979Z,78.61
2018-04-25T01:29:49.014Z,77.46
2018-04-25T01:30:49.021Z,77.17
2018-04-25T01:31:49.035Z,77.94
2018-04-25T01:32:49.097Z,78.47
2018-04-25T01:33:49.086Z,78.86
2018-04-25T01:34:49.103Z,79.72
2018-04-25T01:35:49.140Z,80.63
2018-04-25T01:36:49.170Z,81.11
2018-04-25T01:37:49.177Z,81.02
2018-04-25T01:38:49.199Z,80.29
2018-04-25T01:39:49.223Z,79.18
2018-04-25T01:40:49.244Z,79.05
2018-04-25T01:41:49.268Z,79.14
2018-04-25T01:42:49.292Z,79.52
2018-04-25T01:43:49.329Z,80.82
2018-04-25T01:44:49.335Z,81.88
2018-04-25T01:45:49.352Z,80.10
2018-04-25T01:46:49.377Z,79.08
2018-04-25T01:47:49.398Z,78.70
2018-04-25T01:48:49.426Z,78.99
2018-04-25T01:49:49.449Z,79.14
2018-04-25T01:50:49.470Z,79.43
2018-04-25T01:51:49.492Z,78.86
2018-04-25T01:52:49.516Z,78.61
2018-04-25T01:53:49.540Z,78.03
2018-04-25T01:54:49.560Z,77.26
2018-04-25T01:55:49.593Z,76.79
2018-04-25T01:56:49.606Z,77.65
2018-04-25T01:57:49.624Z,77.75
2018-04-25T01:58:49.647Z,77.61
2018-04-25T01:59:49.685Z,78.38
2018-04-25T02:00:49.694Z,79.49
2018-04-25T02:01:49.714Z,79.96
2018-04-25T02:02:49.737Z,80.92
2018-04-25T02:03:49.762Z,81.02
2018-04-25T02:04:49.784Z,81.02
2018-04-25T02:05:49.804Z,81.49
2018-04-25T02:06:49.834Z,80.73
2018-04-25T02:07:49.849Z,81.84
2018-04-25T02:08:49.876Z,82.70
2018-04-25T02:09:49.924Z,82.41
2018-04-25T02:10:49.917Z,82.60
2018-04-25T02:11:49.939Z,82.17
2018-04-25T02:12:49.965Z,81.30
2018-04-25T02:13:49.985Z,80.73
2018-04-25T02:14:50.002Z,80.73
2018-04-25T02:15:50.029Z,80.58
2018-04-25T02:16:50.049Z,79.14
2018-04-25T02:17:50.083Z,79.72
2018-04-25T02:18:50.102Z,79.91
2018-04-25T02:19:50.120Z,79.72
2018-04-25T02:20:50.139Z,79.91
2018-04-25T02:21:50.198Z,80.16
2018-04-25T02:22:50.182Z,80.16
2018-04-25T02:23:50.206Z,80.44
2018-04-25T02:24:50.296Z,79.72
2018-04-25T02:25:50.250Z,79.24
2018-04-25T02:26:50.283Z,79.05
2018-04-25T02:27:50.293Z,78.57
2018-04-25T02:28:50.348Z,78.66
2018-04-25T02:29:50.341Z,79.00
2018-04-25T02:30:50.363Z,79.49
2018-04-25T02:31:50.388Z,79.62
2018-04-25T02:32:50.413Z,79.43
2018-04-25T02:33:50.435Z,78.95
2018-04-25T02:34:50.451Z,78.86
2018-04-25T02:35:50.487Z,78.86
2018-04-25T02:36:50.492Z,78.86
2018-04-25T02:37:50.515Z,79.00
2018-04-25T02:38:50.541Z,79.77
2018-04-25T02:39:50.565Z,79.49
2018-04-25T02:40:50.584Z,80.82
2018-04-25T02:41:50.602Z,80.73
2018-04-25T02:42:50.626Z,80.82
2018-04-25T02:43:50.655Z,80.82
2018-04-25T02:44:50.670Z,81.68
2018-04-25T02:45:50.696Z,80.35
2018-04-25T02:46:50.852Z,79.72
2018-04-25T02:47:50.737Z,79.39
2018-04-25T02:48:50.762Z,80.82
2018-04-25T02:49:50.781Z,80.54
2018-04-25T02:50:50.811Z,81.02
2018-04-25T02:51:50.855Z,80.35
2018-04-25T02:52:50.858Z,80.88
2018-04-25T02:53:50.877Z,81.26
2018-04-25T02:54:50.891Z,81.02
2018-04-25T02:55:50.923Z,80.82
2018-04-25T02:56:50.939Z,79.49
2018-04-25T02:57:50.971Z,80.35
2018-04-25T02:58:51.012Z,80.44
2018-04-25T02:59:51.030Z,80.73
2018-04-25T03:00:51.079Z,80.25
2018-04-25T03:01:51.070Z,80.73
2018-04-25T03:02:51.071Z,80.82
2018-04-25T03:03:51.099Z,80.35
2018-04-25T03:04:51.116Z,80.44
2018-04-25T03:05:51.134Z,80.63
2018-04-25T03:06:51.178Z,80.44
2018-04-25T03:07:51.205Z,81.16
2018-04-25T03:08:51.226Z,80.82
2018-04-25T03:09:51.226Z,80.54
2018-04-25T03:10:51.242Z,80.63
2018-04-25T03:11:51.273Z,79.96
2018-04-25T03:12:51.322Z,80.44
2018-04-25T03:13:51.337Z,80.63
2018-04-25T03:14:51.339Z,80.63
2018-04-25T03:15:51.378Z,80.25
2018-04-25T03:16:51.389Z,79.96
2018-04-25T03:17:51.407Z,79.96
2018-04-25T03:18:51.477Z,79.87
2018-04-25T03:19:51.459Z,79.96
2018-04-25T03:20:51.471Z,80.44
2018-04-25T03:21:51.500Z,80.16
2018-04-25T03:22:51.510Z,80.50
2018-04-25T03:23:51.574Z,80.98
2018-04-25T03:24:51.561Z,80.35
2018-04-25T03:25:51.581Z,80.88
2018-04-25T03:26:51.601Z,81.45
2018-04-25T03:27:51.626Z,81.93
2018-04-25T03:28:51.640Z,81.74
2018-04-25T03:29:51.712Z,82.79
2018-04-25T03:30:51.690Z,82.31
2018-04-25T03:31:51.717Z,82.12
2018-04-25T03:32:51.767Z,81.26
2018-04-25T03:33:51.753Z,80.73
2018-04-25T03:34:51.780Z,80.40
2018-04-25T03:35:51.797Z,80.69
2018-04-25T03:36:51.826Z,80.69
2018-04-25T03:37:51.844Z,80.98
2018-04-25T03:38:51.873Z,80.59
2018-04-25T03:39:51.888Z,80.79
2018-04-25T03:40:51.908Z,80.88
2018-04-25T03:41:51.932Z,80.98
2018-04-25T03:42:51.950Z,81.07
2018-04-25T03:43:52.012Z,81.11
2018-04-25T03:44:52.002Z,80.73
2018-04-25T03:45:52.021Z,80.54
2018-04-25T03:46:52.042Z,80.82
2018-04-25T03:47:52.063Z,81.30
2018-04-25T03:48:52.088Z,81.21
2018-04-25T03:49:52.109Z,80.79
2018-04-25T03:50:52.131Z,81.55
2018-04-25T03:51:52.272Z,82.41
2018-04-25T03:52:52.177Z,82.12
2018-04-25T03:53:52.215Z,82.41
2018-04-25T03:54:52.217Z,82.22
2018-04-25T03:55:52.242Z,81.40
2018-04-25T03:56:52.288Z,81.30
2018-04-25T03:57:52.276Z,81.02
2018-04-25T03:58:52.305Z,80.92
2018-04-25T03:59:52.325Z,81.02
2018-04-25T04:00:52.370Z,81.21
2018-04-25T04:01:52.371Z,80.82
2018-04-25T04:02:52.393Z,80.63
2018-04-25T04:03:52.412Z,81.65
2018-04-25T04:04:52.451Z,81.93
2018-04-25T04:05:52.470Z,81.93
2018-04-25T04:06:52.482Z,81.84
2018-04-25T04:07:52.511Z,81.84
2018-04-25T04:08:52.546Z,82.22
2018-04-25T04:09:52.543Z,81.97
2018-04-25T04:10:52.569Z,81.49
2018-04-25T04:11:52.594Z,81.02
2018-04-25T04:12:52.690Z,80.92
2018-04-25T04:13:52.637Z,81.11
2018-04-25T04:14:52.657Z,80.63
2018-04-25T04:15:52.680Z,81.21
2018-04-25T04:16:52.698Z,80.67
2018-04-25T04:17:52.760Z,79.72
2018-04-25T04:18:52.759Z,79.62
2018-04-25T04:19:52.768Z,79.52
2018-04-25T04:20:52.792Z,78.66
2018-04-25T04:21:52.815Z,78.57
2018-04-25T04:22:52.838Z,79.14
2018-04-25T04:23:52.871Z,78.76
2018-04-25T04:24:52.935Z,78.38
2018-04-25T04:25:52.914Z,78.38
2018-04-25T04:26:52.921Z,78.81
2018-04-25T04:27:52.937Z,78.72
2018-04-25T04:28:52.966Z,79.39
2018-04-25T04:29:52.980Z,79.68
2018-04-25T04:30:53.005Z,79.77
2018-04-25T04:31:53.029Z,80.06
2018-04-25T04:32:53.057Z,80.06
2018-04-25T04:33:53.108Z,79.96
2018-04-25T04:34:53.090Z,80.44
2018-04-25T04:35:53.143Z,80.92
2018-04-25T04:36:53.141Z,80.79
2018-04-25T04:37:53.223Z,81.74
2018-04-25T04:38:53.184Z,81.26
2018-04-25T04:39:53.221Z,81.93
2018-04-25T04:40:53.231Z,81.65
2018-04-25T04:41:53.272Z,81.88
2018-04-25T04:42:53.291Z,80.92
2018-04-25T04:43:53.305Z,80.73
2018-04-25T04:44:53.322Z,80.35
2018-04-25T04:45:53.335Z,80.63
2018-04-25T04:46:53.373Z,81.30
2018-04-25T04:47:53.556Z,80.92
2018-04-25T04:48:53.406Z,80.92
2018-04-25T04:49:53.437Z,82.17
2018-04-25T04:50:53.450Z,82.07
2018-04-25T04:51:53.475Z,81.97
2018-04-25T04:52:53.491Z,82.26
2018-04-25T04:53:53.517Z,82.45
2018-04-25T04:54:53.540Z,82.45
2018-04-25T04:55:53.560Z,82.54
2018-04-25T04:56:53.580Z,82.26
2018-04-25T04:57:53.661Z,82.11
2018-04-25T04:58:53.644Z,81.97
2018-04-25T04:59:53.646Z,81.97
2018-04-25T05:00:53.691Z,81.78
2018-04-25T05:01:53.688Z,82.35
2018-04-25T05:02:53.708Z,82.17
2018-04-25T05:03:53.743Z,82.35
2018-04-25T05:04:53.791Z,82.35
2018-04-25T05:05:53.788Z,81.78
2018-04-25T05:06:53.797Z,80.67
2018-04-25T05:07:53.840Z,80.67
2018-04-25T05:08:53.885Z,80.67
2018-04-25T05:09:53.884Z,80.87
2018-04-25T05:10:53.897Z,80.96
2018-04-25T05:11:53.915Z,81.25
2018-04-25T05:12:53.939Z,81.05
2018-04-25T05:13:53.952Z,80.96
2018-04-25T05:14:54.256Z,81.63
2018-04-25T05:15:54.005Z,81.44
2018-04-25T05:16:54.025Z,81.86
2018-04-25T05:17:54.132Z,81.73
2018-04-25T05:18:54.126Z,80.77
2018-04-25T05:19:54.094Z,80.81
2018-04-25T05:20:54.160Z,80.52
2018-04-25T05:21:54.240Z,80.81
2018-04-25T05:22:54.229Z,80.43
2018-04-25T05:23:54.204Z,80.81
2018-04-25T05:24:54.211Z,80.71
2018-04-25T05:25:54.236Z,80.24
2018-04-25T05:26:54.340Z,80.04
2018-04-25T05:27:54.264Z,79.85
2018-04-25T05:28:54.292Z,79.75
2018-04-25T05:29:54.334Z,79.95
2018-04-25T05:30:54.375Z,79.95
2018-04-25T05:31:54.460Z,79.18
2018-04-25T05:32:54.388Z,78.80
2018-04-25T05:33:54.412Z,78.64
2018-04-25T05:34:54.435Z,79.75
2018-04-25T05:35:54.527Z,80.04
2018-04-25T05:36:54.524Z,79.75
2018-04-25T05:37:54.499Z,79.60
2018-04-25T05:38:54.511Z,79.22
2018-04-25T05:39:54.539Z,78.64
2018-04-25T05:40:54.564Z,79.41
2018-04-25T05:41:54.593Z,80.08
2018-04-25T05:42:54.641Z,80.18
2018-04-25T05:43:54.683Z,79.80
2018-04-25T05:44:54.657Z,79.13
2018-04-25T05:45:54.794Z,77.69
2018-04-25T05:46:54.757Z,77.69
2018-04-25T05:47:54.763Z,77.31
2018-04-25T05:48:54.821Z,77.06
2018-04-25T05:49:54.835Z,76.82
2018-04-25T05:50:54.801Z,77.31
2018-04-25T05:51:54.928Z,77.53
2018-04-25T05:52:54.928Z,77.53
2018-04-25T05:53:54.861Z,78.40
2018-04-25T05:54:54.885Z,77.44
2018-04-25T05:55:54.916Z,77.59
2018-04-25T05:56:54.927Z,77.21
2018-04-25T05:57:55.017Z,77.63
2018-04-25T05:58:54.975Z,77.44
2018-04-25T05:59:55.005Z,78.02
2018-04-25T06:00:55.022Z,78.02
2018-04-25T06:01:55.061Z,77.53
2018-04-25T06:02:55.081Z,77.53
2018-04-25T06:03:55.091Z,77.34
2018-04-25T06:04:55.114Z,77.63
2018-04-25T06:05:55.143Z,77.63
2018-04-25T06:06:55.156Z,77.44
2018-04-25T06:07:55.180Z,77.34
2018-04-25T06:08:55.218Z,77.44
2018-04-25T06:09:55.226Z,77.63
2018-04-25T06:10:55.264Z,77.44
2018-04-25T06:11:55.273Z,77.63
2018-04-25T06:12:55.297Z,78.02
2018-04-25T06:13:55.348Z,77.63
2018-04-25T06:14:55.350Z,77.82
2018-04-25T06:15:55.370Z,77.82
2018-04-25T06:16:55.416Z,78.30
2018-04-25T06:17:55.429Z,78.30
2018-04-25T06:18:55.453Z,77.73
2018-04-25T06:19:55.463Z,77.82
2018-04-25T06:20:55.482Z,77.29
2018-04-25T06:21:55.503Z,76.90
2018-04-25T06:22:55.521Z,76.71
2018-04-25T06:23:55.551Z,76.52
2018-04-25T06:24:55.568Z,76.62
2018-04-25T06:25:55.600Z,76.71
2018-04-25T06:26:55.622Z,76.62
2018-04-25T06:27:55.705Z,76.52
2018-04-25T06:28:55.730Z,76.81
2018-04-25T06:29:55.692Z,76.52
2018-04-25T06:30:55.723Z,77.09
2018-04-25T06:31:55.740Z,77.38
2018-04-25T06:32:55.760Z,77.19
2018-04-25T06:33:55.805Z,76.81
2018-04-25T06:34:55.821Z,77.09
2018-04-25T06:35:55.832Z,77.09
2018-04-25T06:36:55.851Z,77.29
2018-04-25T06:37:55.887Z,77.13
2018-04-25T06:38:55.904Z,77.13
2018-04-25T06:39:55.923Z,75.89
2018-04-25T06:40:55.945Z,75.79
2018-04-25T06:41:55.976Z,75.50
2018-04-25T06:42:56.023Z,74.73
2018-04-25T06:43:56.018Z,74.83
2018-04-25T06:44:56.077Z,74.73
2018-04-25T06:45:56.066Z,74.06
2018-04-25T06:46:56.089Z,73.58
2018-04-25T06:47:56.112Z,74.19
2018-04-25T06:48:56.136Z,73.58
2018-04-25T06:49:56.180Z,73.58
2018-04-25T06:50:56.186Z,74.16
2018-04-25T06:51:56.206Z,74.44
2018-04-25T06:52:56.227Z,73.62
2018-04-25T06:53:56.257Z,73.87
2018-04-25T06:54:56.296Z,73.72
2018-04-25T06:55:56.303Z,73.24
2018-04-25T06:56:56.415Z,74.10
2018-04-25T06:57:56.351Z,73.91
2018-04-25T06:58:56.371Z,73.62
2018-04-25T06:59:56.390Z,73.72
2018-04-25T07:00:56.418Z,73.14
2018-04-25T07:01:56.448Z,73.72
2018-04-25T07:02:56.481Z,73.14
2018-04-25T07:03:56.506Z,73.24
2018-04-25T07:04:56.518Z,73.04
2018-04-25T07:05:56.624Z,72.79
2018-04-25T07:06:56.582Z,72.50
2018-04-25T07:07:56.592Z,72.12
2018-04-25T07:08:56.619Z,71.83
2018-04-25T07:09:56.639Z,71.55
2018-04-25T07:10:56.651Z,71.55
2018-04-25T07:11:56.691Z,71.35
2018-04-25T07:12:56.728Z,71.35
2018-04-25T07:13:56.727Z,70.72
2018-04-25T07:14:56.753Z,70.29
2018-04-25T07:15:56.783Z,70.20
2018-04-25T07:16:56.796Z,70.68
2018-04-25T07:17:56.826Z,70.78
2018-04-25T07:18:56.855Z,70.68
2018-04-25T07:19:56.874Z,70.87
2018-04-25T07:20:56.905Z,70.58
2018-04-25T07:21:56.924Z,71.06
2018-04-25T07:22:56.943Z,70.78
2018-04-25T07:23:57.008Z,71.35
2018-04-25T07:24:56.995Z,71.35
2018-04-25T07:25:57.012Z,71.06
2018-04-25T07:26:57.045Z,70.29
2018-04-25T07:27:57.073Z,70.20
2018-04-25T07:28:57.088Z,70.68
2018-04-25T07:29:57.114Z,70.20
2018-04-25T07:30:57.142Z,70.20
2018-04-25T07:31:57.167Z,69.81
2018-04-25T07:32:57.190Z,70.14
2018-04-25T07:33:57.210Z,69.81
2018-04-25T07:34:57.233Z,70.29
2018-04-25T07:35:57.260Z,69.62
2018-04-25T07:36:57.286Z,69.72
2018-04-25T07:37:57.308Z,69.85
2018-04-25T07:38:57.334Z,68.31
2018-04-25T07:39:57.357Z,68.89
2018-04-25T07:40:57.428Z,68.98
2018-04-25T07:41:57.411Z,68.89
2018-04-25T07:42:57.472Z,67.93
2018-04-25T07:43:57.454Z,67.93
2018-04-25T07:44:57.479Z,68.31
2018-04-25T07:45:57.507Z,68.70
2018-04-25T07:46:57.526Z,68.70
2018-04-25T07:47:57.577Z,68.98
2018-04-25T07:48:57.580Z,68.31
2018-04-25T07:49:57.602Z,68.41
2018-04-25T07:50:57.636Z,68.12
2018-04-25T07:51:57.654Z,68.21
2018-04-25T07:52:57.674Z,67.61
2018-04-25T07:53:57.697Z,68.28
2018-04-25T07:54:57.721Z,68.98
2018-04-25T07:55:57.748Z,67.93
2018-04-25T07:56:57.772Z,67.64
2018-04-25T07:57:57.795Z,67.90
2018-04-25T07:58:57.820Z,68.08
2018-04-25T07:59:57.853Z,68.85
2018-04-25T08:00:57.944Z,68.98
2018-04-25T08:01:57.894Z,69.34
2018-04-25T08:02:57.920Z,68.98
2018-04-25T08:03:57.946Z,69.27
2018-04-25T08:04:57.967Z,69.46
2018-04-25T08:05:58.073Z,69.53
2018-04-25T08:06:58.056Z,69.62
2018-04-25T08:07:58.039Z,70.10
2018-04-25T08:08:58.069Z,70.10
2018-04-25T08:09:58.095Z,69.46
2018-04-25T08:10:58.111Z,69.24
2018-04-25T08:11:58.140Z,69.08
2018-04-25T08:12:58.179Z,68.85
2018-04-25T08:13:58.208Z,68.85
2018-04-25T08:14:58.253Z,67.99
2018-04-25T08:15:58.252Z,69.05
2018-04-25T08:16:58.263Z,68.95
2018-04-25T08:17:58.338Z,69.24
2018-04-25T08:18:58.314Z,69.43
2018-04-25T08:19:58.350Z,68.85
2018-04-25T08:20:58.359Z,69.24
2018-04-25T08:21:58.383Z,69.34
2018-04-25T08:22:58.410Z,69.18
2018-04-25T08:23:58.443Z,69.37
2018-04-25T08:24:58.459Z,69.66
2018-04-25T08:25:58.481Z,70.01
2018-04-25T08:26:58.506Z,70.20
2018-04-25T08:27:58.553Z,70.29
2018-04-25T08:28:58.560Z,70.39
2018-04-25T08:29:58.577Z,70.58
2018-04-25T08:30:58.606Z,69.81
2018-04-25T08:31:58.636Z,69.81
2018-04-25T08:32:58.653Z,69.91
2018-04-25T08:33:58.692Z,70.10
2018-04-25T08:34:58.761Z,70.23
2018-04-25T08:35:58.726Z,69.81
2018-04-25T08:36:58.751Z,70.01
2018-04-25T08:37:58.774Z,69.72
2018-04-25T08:38:58.808Z,69.72
2018-04-25T08:39:58.826Z,70.20
2018-04-25T08:40:58.884Z,70.23
2018-04-25T08:41:58.882Z,70.68
2018-04-25T08:42:58.899Z,69.91
2018-04-25T08:43:58.921Z,69.91
2018-04-25T08:44:59.138Z,69.91
2018-04-25T08:45:58.973Z,70.20
2018-04-25T08:46:58.993Z,70.58
2018-04-25T08:47:59.027Z,70.29
2018-04-25T08:48:59.048Z,70.49
2018-04-25T08:49:59.073Z,70.78
2018-04-25T08:50:59.098Z,70.78
2018-04-25T08:51:59.118Z,70.01
2018-04-25T08:52:59.145Z,69.62
2018-04-25T08:53:59.173Z,69.72
2018-04-25T08:54:59.196Z,69.81
2018-04-25T08:55:59.241Z,70.20
2018-04-25T08:56:59.255Z,70.29
2018-04-25T08:57:59.276Z,70.20
2018-04-25T08:58:59.311Z,70.29
2018-04-25T08:59:59.333Z,69.91
2018-04-25T09:00:59.342Z,68.18
2018-04-25T09:01:59.366Z,67.70
2018-04-25T09:02:59.392Z,67.13
2018-04-25T09:03:59.416Z,66.84
2018-04-25T09:04:59.440Z,66.36
2018-04-25T09:05:59.482Z,66.77
2018-04-25T09:06:59.493Z,66.36
2018-04-25T09:07:59.525Z,66.39
2018-04-25T09:08:59.549Z,66.74
2018-04-25T09:09:59.560Z,66.97
2018-04-25T09:10:59.587Z,66.49
2018-04-25T09:11:59.615Z,66.84
2018-04-25T09:12:59.636Z,66.49
2018-04-25T09:13:59.660Z,65.72
2018-04-25T09:14:59.694Z,65.14
2018-04-25T09:15:59.707Z,65.05
2018-04-25T09:16:59.737Z,64.53
2018-04-25T09:17:59.758Z,64.82
2018-04-25T09:18:59.782Z,64.56
2018-04-25T09:19:59.821Z,64.76
2018-04-25T09:20:59.915Z,64.85
2018-04-25T09:21:59.858Z,64.37
2018-04-25T09:22:59.883Z,64.37
2018-04-25T09:23:59.916Z,64.56
2018-04-25T09:24:59.927Z,63.99
2018-04-25T09:25:59.969Z,64.56
2018-04-25T09:26:59.996Z,64.28
2018-04-25T09:28:00.000Z,64.56
2018-04-25T09:29:00.031Z,63.79
2018-04-25T09:30:00.054Z,63.35
2018-04-25T09:31:00.088Z,62.48
2018-04-25T09:32:00.112Z,62.38
2018-04-25T09:33:00.139Z,63.09
2018-04-25T09:34:00.153Z,61.10
2018-04-25T09:35:00.180Z,61.55
2018-04-25T09:36:00.205Z,61.74
2018-04-25T09:37:00.222Z,61.10
2018-04-25T09:38:00.256Z,61.68
2018-04-25T09:39:00.277Z,61.58
2018-04-25T09:40:00.310Z,59.72
2018-04-25T09:41:00.348Z,60.30
2018-04-25T09:42:00.359Z,60.39
2018-04-25T09:43:00.380Z,59.92
2018-04-25T09:44:00.406Z,57.99
2018-04-25T09:45:00.424Z,56.65
2018-04-25T09:46:00.463Z,56.36
2018-04-25T09:47:00.477Z,55.88
2018-04-25T09:48:00.497Z,56.48
2018-04-25T09:49:00.528Z,55.71
2018-04-25T09:50:00.551Z,56.38
2018-04-25T09:51:00.577Z,56.29
2018-04-25T09:52:00.604Z,57.35
2018-04-25T09:53:00.622Z,56.67
2018-04-25T09:54:00.676Z,57.25
2018-04-25T09:55:00.704Z,57.83
2018-04-25T09:56:00.702Z,57.06
2018-04-25T09:57:00.741Z,56.48
2018-04-25T09:58:00.826Z,55.78
2018-04-25T09:59:00.831Z,56.26
2018-04-25T10:00:00.800Z,56.45
2018-04-25T10:01:00.831Z,56.65
2018-04-25T10:02:00.857Z,56.26
2018-04-25T10:03:00.877Z,56.65
2018-04-25T10:04:00.920Z,56.87
2018-04-25T10:05:00.927Z,56.10
2018-04-25T10:06:00.952Z,56.20
2018-04-25T10:07:00.983Z,55.20
2018-04-25T10:08:01.010Z,55.30
2018-04-25T10:09:01.032Z,55.49
2018-04-25T10:10:01.051Z,55.40
2018-04-25T10:11:01.083Z,55.71
2018-04-25T10:12:01.131Z,55.23
2018-04-25T10:13:01.131Z,55.11
2018-04-25T10:14:01.155Z,56.29
2018-04-25T10:15:01.206Z,55.71
2018-04-25T10:16:01.216Z,54.75
2018-04-25T10:17:01.291Z,54.82
2018-04-25T10:18:01.261Z,54.94
2018-04-25T10:19:01.292Z,54.94
2018-04-25T10:20:01.309Z,54.36
2018-04-25T10:21:01.338Z,54.49
2018-04-25T10:22:01.361Z,54.20
2018-04-25T10:23:01.389Z,54.00
2018-04-25T10:24:01.449Z,54.46
2018-04-25T10:25:01.441Z,54.08
2018-04-25T10:26:01.459Z,54.56
2018-04-25T10:27:01.488Z,54.24
2018-04-25T10:28:01.510Z,54.43
2018-04-25T10:29:01.542Z,54.43
2018-04-25T10:30:01.565Z,54.82
2018-04-25T10:31:01.605Z,54.72
2018-04-25T10:32:01.643Z,55.23
2018-04-25T10:33:01.652Z,54.36
2018-04-25T10:34:01.672Z,54.08
2018-04-25T10:35:01.692Z,53.88
2018-04-25T10:36:01.728Z,54.27
2018-04-25T10:37:01.743Z,53.02
2018-04-25T10:38:01.770Z,51.76
2018-04-25T10:39:01.880Z,51.57
2018-04-25T10:40:01.821Z,51.48
2018-04-25T10:41:01.865Z,52.06
2018-04-25T10:42:01.872Z,52.54
2018-04-25T10:43:01.903Z,52.06
2018-04-25T10:44:01.929Z,53.02
2018-04-25T10:45:01.950Z,52.25
2018-04-25T10:46:01.979Z,52.15
2018-04-25T10:47:02.000Z,51.57
2018-04-25T10:48:02.026Z,51.76
2018-04-25T10:49:02.054Z,51.67
2018-04-25T10:50:02.095Z,51.86
2018-04-25T10:51:02.100Z,52.34
2018-04-25T10:52:02.136Z,52.44
2018-04-25T10:53:02.152Z,51.67
2018-04-25T10:54:02.179Z,52.15
2018-04-25T10:55:02.211Z,52.15
2018-04-25T10:56:02.232Z,52.95
2018-04-25T10:57:02.261Z,52.37
2018-04-25T10:58:02.277Z,51.50
2018-04-25T10:59:02.306Z,51.60
2018-04-25T11:00:02.331Z,51.41
2018-04-25T11:01:02.369Z,51.31
2018-04-25T11:02:02.381Z,52.37
2018-04-25T11:03:02.415Z,51.89
2018-04-25T11:04:02.431Z,52.47
2018-04-25T11:05:02.463Z,51.92
2018-04-25T11:06:02.483Z,51.34
2018-04-25T11:07:02.508Z,51.62
2018-04-25T11:08:02.538Z,51.05
2018-04-25T11:09:02.564Z,51.24
2018-04-25T11:10:02.582Z,51.34
2018-04-25T11:11:02.610Z,51.41
2018-04-25T11:12:02.640Z,52.08
2018-04-25T11:13:02.661Z,52.01
2018-04-25T11:14:02.695Z,51.72
2018-04-25T11:15:02.715Z,51.62
2018-04-25T11:16:02.741Z,51.50
2018-04-25T11:17:02.768Z,51.82
2018-04-25T11:18:02.791Z,51.98
2018-04-25T11:19:02.817Z,52.18
2018-04-25T11:20:02.844Z,52.47
2018-04-25T11:21:02.872Z,52.95
2018-04-25T11:22:02.898Z,53.53
2018-04-25T11:23:02.932Z,53.53
2018-04-25T11:24:02.949Z,54.56
2018-04-25T11:25:02.976Z,54.46
2018-04-25T11:26:03.000Z,54.75
2018-04-25T11:27:03.029Z,54.94
2018-04-25T11:28:03.095Z,55.13
2018-04-25T11:29:03.080Z,55.81
2018-04-25T11:30:03.105Z,55.23
2018-04-25T11:31:03.131Z,55.33
2018-04-25T11:32:03.160Z,55.13
2018-04-25T11:33:03.176Z,54.94
2018-04-25T11:34:03.207Z,55.71
2018-04-25T11:35:03.233Z,55.45
2018-04-25T11:36:03.259Z,55.71
2018-04-25T11:37:03.292Z,56.20
2018-04-25T11:38:03.313Z,56.20
2018-04-25T11:39:03.346Z,56.00
2018-04-25T11:40:03.364Z,56.20
2018-04-25T11:41:03.393Z,56.77
2018-04-25T11:42:03.411Z,56.29
2018-04-25T11:43:03.453Z,56.20
2018-04-25T11:44:03.462Z,56.20
2018-04-25T11:45:03.501Z,56.48
2018-04-25T11:46:03.522Z,57.35
2018-04-25T11:47:03.560Z,56.80
2018-04-25T11:48:03.569Z,56.29
2018-04-25T11:49:03.603Z,55.45
2018-04-25T11:50:03.620Z,54.87
2018-04-25T11:51:03.648Z,54.58
2018-04-25T11:52:03.670Z,54.49
2018-04-25T11:53:03.703Z,54.39
2018-04-25T11:54:03.723Z,54.36
2018-04-25T11:55:03.754Z,54.00
2018-04-25T11:56:03.780Z,53.43
2018-04-25T11:57:03.804Z,53.43
2018-04-25T11:58:03.829Z,53.78
2018-04-25T11:59:03.857Z,54.36
2018-04-25T12:00:03.888Z,54.30
2018-04-25T12:01:03.910Z,53.23
2018-04-25T12:02:03.937Z,53.23
2018-04-25T12:03:03.969Z,53.23
2018-04-25T12:04:03.987Z,54.27
2018-04-25T12:05:04.092Z,53.91
2018-04-25T12:06:04.064Z,53.40
2018-04-25T12:07:04.064Z,54.27
2018-04-25T12:08:04.089Z,54.08
2018-04-25T12:09:04.118Z,53.11
2018-04-25T12:10:04.144Z,53.02
2018-04-25T12:11:04.169Z,51.96
2018-04-25T12:12:04.194Z,51.60
2018-04-25T12:13:04.284Z,51.60
2018-04-25T12:14:04.245Z,52.08
2018-04-25T12:15:04.276Z,51.98
2018-04-25T12:16:04.332Z,52.08
2018-04-25T12:17:04.326Z,52.27
2018-04-25T12:18:04.348Z,52.47
2018-04-25T12:19:04.394Z,52.27
2018-04-25T12:20:04.397Z,52.49
2018-04-25T12:21:04.432Z,51.53
2018-04-25T12:22:04.450Z,51.36
2018-04-25T12:23:04.483Z,50.40
2018-04-25T12:24:04.503Z,50.01
2018-04-25T12:25:04.530Z,49.82
2018-04-25T12:26:04.565Z,49.53
2018-04-25T12:27:04.594Z,49.24
2018-04-25T12:28:04.609Z,50.01
2018-04-25T12:29:04.652Z,49.27
2018-04-25T12:30:04.663Z,46.86
2018-04-25T12:31:04.695Z,48.03
2018-04-25T12:32:04.713Z,47.92
2018-04-25T12:33:04.739Z,48.76
2018-04-25T12:34:04.762Z,49.37
2018-04-25T12:35:04.798Z,48.79
2018-04-25T12:36:04.817Z,48.30
2018-04-25T12:37:04.849Z,47.72
2018-04-25T12:38:04.877Z,48.57
2018-04-25T12:39:04.901Z,48.66
2018-04-25T12:40:04.931Z,49.05
2018-04-25T12:41:04.952Z,48.76
2018-04-25T12:42:04.990Z,48.95
2018-04-25T12:43:05.011Z,49.02
2018-04-25T12:44:05.032Z,49.24
2018-04-25T12:45:05.064Z,48.28
2018-04-25T12:46:05.091Z,48.01
2018-04-25T12:47:05.109Z,47.75
2018-04-25T12:48:05.147Z,46.49
2018-04-25T12:49:05.163Z,46.42
2018-04-25T12:50:05.201Z,45.55
2018-04-25T12:51:05.220Z,45.34
2018-04-25T12:52:05.243Z,44.97
2018-04-25T12:53:05.274Z,44.78